Airfield :
LOGIN :

Register | Disclaimer

   EN    FR    IT 

 










Legend :    VFR   Marginal VFR   IFR   Intensive IFR   Very Intensive IFR
Visi :
Ceiling :
>= 8 km
>= 3000ft
5 to 8 km
1000 to 3000 ft
1500m to 5 km
500 to 1000 ft
800 to 1500m
200 to 500 ft
< 800m
< 200 ft
Symbols :   Thunderstorms  Fog  Heavy snow  Heavy precipitations  Wind > 20 kt
SIGMETs :     Misc.  Thunderstorms  Icing  Turbulence  Mountain Waves  Volcanic Ashes







- Airport Elevation : 512 ft
- IATA code : URO
- Download approach charts


LFOP - Rouen Vallée de Seine

CURRENT METAR :
  • 221200Z AUTO VRB02KT 5000 BR ////// 08/08 Q1029

EXPIRED METARs :
  • 221130Z AUTO VRB02KT 3300 BR ////// 08/08 Q1029
  • 221100Z AUTO VRB01KT 2900 BR OVC003 07/07 Q1029 BECMG CAVOK
  • 221030Z AUTO VRB02KT 1200 1100 R22/1000U BR OVC002 07/07 Q1030 BECMG CAVOK
  • 221000Z AUTO VRB01KT 0550 0450 R22/0700N FG VV/// 06/06 Q1030 BECMG CAVOK
  • 220930Z AUTO VRB02KT 0300 R22/0375N FG VV/// 06/06 Q1030 BECMG CAVOK
  • 220900Z AUTO 33003KT 300V010 0300 R22/0350N FG VV/// 06/05 Q1030 BECMG CAVOK

TAF TAF LFOP
Valid from the 22 at 12:00 until the 23 at 12:00 UTC


221100Z 2212/2312 VRB02KT 4000 BR OVC004
BECMG 2212/2214 CAVOK
BECMG 2220/2223 0700 FG OVC003
PROB40 2300/2309 0200 FG VV///
BECMG 2309/2312 9999 NSW BKN020
ATIS : +33 2 35 80 80 34
Met : +33 2 32 86 52 80
No reported NOTAMs for that airfield.



MET'MAP, your aeronautical weather chart ! - Copyright ORBIFLY December 2007 - Disclaimer

ORBIFLY MET'MAP TEAM :

Programming & Development : Alexandra Zaïnal
Concept & Development : Baudouin d'Aumeries
Co-Development & Prog : Marc-Olivier Méhu
Technical & hardware support : Manuel Goepfert

Contact : metmap@orbifly.com




SOURCES & CREDITS :

   NOAA